Terminal Aerodrome Forecast
Issued by NWS Northern Indiana

Home | Current Version | Previous Version | Text Only | Print | Product List | Glossary Off
Versions: 1 2 3 4 5 6 7 8 9 10 11 12 13 14

000
FTUS43 KIWX 261130
TAFFWA
TAF
KFWA 261130Z 2612/2712 26010KT P6SM FEW050
     FM261500 28012G18KT P6SM FEW050
     FM261800 28014G22KT P6SM BKN060
     FM270000 28009KT P6SM BKN050
     FM270500 29004KT P6SM SCT050=

USA.gov is the U.S. government's official web portal to all federal, state and local government web resources and services.